sensor_id;sensor_type;location;lat;lon;timestamp;temperature;humidity
5938;DHT22;2994;51.220;4.412;2022-12-16T00:00:15;4.16;69.65
5938;DHT22;2994;51.220;4.412;2022-12-16T00:02:41;4.22;69.48
5938;DHT22;2994;51.220;4.412;2022-12-16T00:05:07;4.22;69.44
5938;DHT22;2994;51.220;4.412;2022-12-16T00:07:32;4.27;69.38
5938;DHT22;2994;51.220;4.412;2022-12-16T00:09:58;4.26;69.45
5938;DHT22;2994;51.220;4.412;2022-12-16T00:12:23;4.27;69.40
5938;DHT22;2994;51.220;4.412;2022-12-16T00:14:49;4.24;69.35
5938;DHT22;2994;51.220;4.412;2022-12-16T00:17:14;4.22;69.38
5938;DHT22;2994;51.220;4.412;2022-12-16T00:19:40;4.21;69.28
5938;DHT22;2994;51.220;4.412;2022-12-16T00:22:06;4.17;69.29
5938;DHT22;2994;51.220;4.412;2022-12-16T00:24:31;4.18;69.04
5938;DHT22;2994;51.220;4.412;2022-12-16T00:26:57;4.16;69.07
5938;DHT22;2994;51.220;4.412;2022-12-16T00:29:22;4.13;69.10
5938;DHT22;2994;51.220;4.412;2022-12-16T00:31:48;4.14;69.16
5938;DHT22;2994;51.220;4.412;2022-12-16T00:34:14;4.16;69.08
5938;DHT22;2994;51.220;4.412;2022-12-16T00:36:40;4.14;69.13
5938;DHT22;2994;51.220;4.412;2022-12-16T00:39:06;4.14;69.07
5938;DHT22;2994;51.220;4.412;2022-12-16T00:41:31;4.14;69.00
5938;DHT22;2994;51.220;4.412;2022-12-16T00:43:57;4.14;68.86
5938;DHT22;2994;51.220;4.412;2022-12-16T00:46:22;4.10;68.81
5938;DHT22;2994;51.220;4.412;2022-12-16T00:48:48;4.10;68.79
5938;DHT22;2994;51.220;4.412;2022-12-16T00:51:13;4.06;68.69
5938;DHT22;2994;51.220;4.412;2022-12-16T00:53:38;4.04;68.59
5938;DHT22;2994;51.220;4.412;2022-12-16T00:56:09;4.00;68.43
5938;DHT22;2994;51.220;4.412;2022-12-16T00:58:35;3.97;68.26
5938;DHT22;2994;51.220;4.412;2022-12-16T01:01:02;3.93;68.12
5938;DHT22;2994;51.220;4.412;2022-12-16T01:03:28;3.91;68.09
5938;DHT22;2994;51.220;4.412;2022-12-16T01:05:53;3.89;68.01
5938;DHT22;2994;51.220;4.412;2022-12-16T01:08:19;3.85;68.06
5938;DHT22;2994;51.220;4.412;2022-12-16T01:10:55;3.84;67.92
5938;DHT22;2994;51.220;4.412;2022-12-16T01:13:22;3.79;67.80
5938;DHT22;2994;51.220;4.412;2022-12-16T01:15:48;3.72;67.86
5938;DHT22;2994;51.220;4.412;2022-12-16T01:18:18;3.74;67.75
5938;DHT22;2994;51.220;4.412;2022-12-16T01:20:46;3.71;67.72
5938;DHT22;2994;51.220;4.412;2022-12-16T01:23:11;3.68;67.65
5938;DHT22;2994;51.220;4.412;2022-12-16T01:25:37;3.65;67.68
5938;DHT22;2994;51.220;4.412;2022-12-16T01:28:02;3.64;67.65
5938;DHT22;2994;51.220;4.412;2022-12-16T01:30:28;3.61;67.65
5938;DHT22;2994;51.220;4.412;2022-12-16T01:32:53;3.59;67.68
5938;DHT22;2994;51.220;4.412;2022-12-16T01:35:19;3.56;67.70
5938;DHT22;2994;51.220;4.412;2022-12-16T01:37:44;3.52;67.88
5938;DHT22;2994;51.220;4.412;2022-12-16T01:40:19;3.56;67.78
5938;DHT22;2994;51.220;4.412;2022-12-16T01:42:45;3.56;67.71
5938;DHT22;2994;51.220;4.412;2022-12-16T01:45:33;3.56;67.84
5938;DHT22;2994;51.220;4.412;2022-12-16T01:51:16;3.56;67.72
5938;DHT22;2994;51.220;4.412;2022-12-16T01:53:43;3.53;67.89
5938;DHT22;2994;51.220;4.412;2022-12-16T01:56:12;3.56;67.87
5938;DHT22;2994;51.220;4.412;2022-12-16T01:58:40;3.55;67.94
5938;DHT22;2994;51.220;4.412;2022-12-16T02:01:07;3.59;67.81
5938;DHT22;2994;51.220;4.412;2022-12-16T02:03:34;3.61;67.78
5938;DHT22;2994;51.220;4.412;2022-12-16T02:06:01;3.64;67.73
5938;DHT22;2994;51.220;4.412;2022-12-16T02:08:27;3.68;67.94
5938;DHT22;2994;51.220;4.412;2022-12-16T02:32:14;3.99;69.87
5938;DHT22;2994;51.220;4.412;2022-12-16T02:37:37;4.01;70.62
5938;DHT22;2994;51.220;4.412;2022-12-16T02:45:57;3.98;71.46
5938;DHT22;2994;51.220;4.412;2022-12-16T02:48:26;4.01;71.45
5938;DHT22;2994;51.220;4.412;2022-12-16T02:50:52;4.01;71.50
5938;DHT22;2994;51.220;4.412;2022-12-16T02:53:18;4.02;71.80
5938;DHT22;2994;51.220;4.412;2022-12-16T02:59:07;4.09;71.78
5938;DHT22;2994;51.220;4.412;2022-12-16T03:01:54;4.12;71.86
5938;DHT22;2994;51.220;4.412;2022-12-16T03:04:26;4.14;71.78
5938;DHT22;2994;51.220;4.412;2022-12-16T03:06:54;4.17;71.77
5938;DHT22;2994;51.220;4.412;2022-12-16T03:09:25;4.19;71.76
5938;DHT22;2994;51.220;4.412;2022-12-16T03:11:53;4.21;71.86
5938;DHT22;2994;51.220;4.412;2022-12-16T03:14:22;4.21;72.06
5938;DHT22;2994;51.220;4.412;2022-12-16T03:16:49;4.22;72.24
5938;DHT22;2994;51.220;4.412;2022-12-16T03:19:15;4.26;72.25
5938;DHT22;2994;51.220;4.412;2022-12-16T03:21:45;4.27;72.46
5938;DHT22;2994;51.220;4.412;2022-12-16T03:24:13;4.30;72.45
5938;DHT22;2994;51.220;4.412;2022-12-16T03:29:38;4.37;72.38
5938;DHT22;2994;51.220;4.412;2022-12-16T03:32:15;4.38;72.46
5938;DHT22;2994;51.220;4.412;2022-12-16T03:34:50;4.39;72.57
5938;DHT22;2994;51.220;4.412;2022-12-16T03:37:19;4.38;72.76
5938;DHT22;2994;51.220;4.412;2022-12-16T03:39:49;4.41;72.70
5938;DHT22;2994;51.220;4.412;2022-12-16T03:42:15;4.42;72.85
5938;DHT22;2994;51.220;4.412;2022-12-16T03:44:42;4.44;72.92
5938;DHT22;2994;51.220;4.412;2022-12-16T03:47:08;4.45;72.86
5938;DHT22;2994;51.220;4.412;2022-12-16T03:49:34;4.48;72.74
5938;DHT22;2994;51.220;4.412;2022-12-16T03:51:59;4.51;72.91
5938;DHT22;2994;51.220;4.412;2022-12-16T03:54:25;4.53;72.83
5938;DHT22;2994;51.220;4.412;2022-12-16T03:56:50;4.56;72.80
5938;DHT22;2994;51.220;4.412;2022-12-16T03:59:16;4.57;72.85
5938;DHT22;2994;51.220;4.412;2022-12-16T04:01:41;4.57;72.73
5938;DHT22;2994;51.220;4.412;2022-12-16T04:04:07;4.56;72.79
5938;DHT22;2994;51.220;4.412;2022-12-16T04:06:33;4.53;72.74
5938;DHT22;2994;51.220;4.412;2022-12-16T04:08:59;4.56;72.65
5938;DHT22;2994;51.220;4.412;2022-12-16T04:11:24;4.57;72.68
5938;DHT22;2994;51.220;4.412;2022-12-16T04:14:08;4.56;72.62
5938;DHT22;2994;51.220;4.412;2022-12-16T04:16:52;4.56;72.60
5938;DHT22;2994;51.220;4.412;2022-12-16T04:19:38;4.60;72.65
5938;DHT22;2994;51.220;4.412;2022-12-16T04:22:26;4.59;72.74
5938;DHT22;2994;51.220;4.412;2022-12-16T04:25:15;4.60;72.73
5938;DHT22;2994;51.220;4.412;2022-12-16T04:27:41;4.59;72.87
5938;DHT22;2994;51.220;4.412;2022-12-16T04:30:15;4.62;72.80
5938;DHT22;2994;51.220;4.412;2022-12-16T04:32:52;4.62;72.96
5938;DHT22;2994;51.220;4.412;2022-12-16T04:35:36;4.66;72.90
5938;DHT22;2994;51.220;4.412;2022-12-16T04:38:20;4.65;72.93
5938;DHT22;2994;51.220;4.412;2022-12-16T04:41:04;4.62;73.13
5938;DHT22;2994;51.220;4.412;2022-12-16T04:43:48;4.64;72.92
5938;DHT22;2994;51.220;4.412;2022-12-16T04:46:32;4.64;72.87
5938;DHT22;2994;51.220;4.412;2022-12-16T04:49:16;4.66;72.81
5938;DHT22;2994;51.220;4.412;2022-12-16T04:52:00;4.68;72.80
5938;DHT22;2994;51.220;4.412;2022-12-16T04:54:44;4.66;72.87
5938;DHT22;2994;51.220;4.412;2022-12-16T04:57:28;4.65;72.88
5938;DHT22;2994;51.220;4.412;2022-12-16T05:00:12;4.66;72.85
5938;DHT22;2994;51.220;4.412;2022-12-16T05:02:56;4.66;72.75
5938;DHT22;2994;51.220;4.412;2022-12-16T05:05:45;4.69;72.68
5938;DHT22;2994;51.220;4.412;2022-12-16T05:08:29;4.65;72.78
5938;DHT22;2994;51.220;4.412;2022-12-16T05:11:33;4.65;72.74
5938;DHT22;2994;51.220;4.412;2022-12-16T05:14:17;4.62;72.92
5938;DHT22;2994;51.220;4.412;2022-12-16T05:17:01;4.60;72.86
5938;DHT22;2994;51.220;4.412;2022-12-16T05:19:45;4.57;72.97
5938;DHT22;2994;51.220;4.412;2022-12-16T05:22:29;4.54;72.97
5938;DHT22;2994;51.220;4.412;2022-12-16T05:25:13;4.53;72.96
5938;DHT22;2994;51.220;4.412;2022-12-16T05:27:57;4.52;72.86
5938;DHT22;2994;51.220;4.412;2022-12-16T05:30:41;4.49;72.87
5938;DHT22;2994;51.220;4.412;2022-12-16T05:33:25;4.49;72.60
5938;DHT22;2994;51.220;4.412;2022-12-16T05:36:09;4.48;72.61
5938;DHT22;2994;51.220;4.412;2022-12-16T05:38:53;4.47;72.44
5938;DHT22;2994;51.220;4.412;2022-12-16T05:41:37;4.44;72.32
5938;DHT22;2994;51.220;4.412;2022-12-16T05:44:21;4.43;72.09
5938;DHT22;2994;51.220;4.412;2022-12-16T05:47:06;4.41;72.06
5938;DHT22;2994;51.220;4.412;2022-12-16T05:49:50;4.39;71.93
5938;DHT22;2994;51.220;4.412;2022-12-16T05:52:34;4.38;71.84
5938;DHT22;2994;51.220;4.412;2022-12-16T05:55:18;4.36;71.80
5938;DHT22;2994;51.220;4.412;2022-12-16T05:58:02;4.33;71.85
5938;DHT22;2994;51.220;4.412;2022-12-16T06:00:46;4.30;71.80
5938;DHT22;2994;51.220;4.412;2022-12-16T06:03:30;4.27;71.84
5938;DHT22;2994;51.220;4.412;2022-12-16T06:06:13;4.26;71.71
5938;DHT22;2994;51.220;4.412;2022-12-16T06:08:57;4.22;71.63
5938;DHT22;2994;51.220;4.412;2022-12-16T06:11:41;4.20;71.70
5938;DHT22;2994;51.220;4.412;2022-12-16T06:14:25;4.18;71.65
5938;DHT22;2994;51.220;4.412;2022-12-16T06:17:09;4.18;71.64
5938;DHT22;2994;51.220;4.412;2022-12-16T06:19:53;4.15;71.69
5938;DHT22;2994;51.220;4.412;2022-12-16T06:22:37;4.13;71.65
5938;DHT22;2994;51.220;4.412;2022-12-16T06:25:21;4.16;71.76
5938;DHT22;2994;51.220;4.412;2022-12-16T06:28:05;4.12;71.80
5938;DHT22;2994;51.220;4.412;2022-12-16T06:30:49;4.10;71.80
5938;DHT22;2994;51.220;4.412;2022-12-16T06:33:33;4.07;71.80
5938;DHT22;2994;51.220;4.412;2022-12-16T06:36:17;4.09;71.74
5938;DHT22;2994;51.220;4.412;2022-12-16T06:39:01;4.07;71.77
5938;DHT22;2994;51.220;4.412;2022-12-16T06:41:45;4.08;71.79
5938;DHT22;2994;51.220;4.412;2022-12-16T06:44:29;4.07;71.95
5938;DHT22;2994;51.220;4.412;2022-12-16T06:47:13;4.07;71.89
5938;DHT22;2994;51.220;4.412;2022-12-16T06:49:56;4.06;71.87
5938;DHT22;2994;51.220;4.412;2022-12-16T06:52:44;4.05;71.91
5938;DHT22;2994;51.220;4.412;2022-12-16T06:55:28;4.04;71.91
5938;DHT22;2994;51.220;4.412;2022-12-16T06:58:12;4.05;71.80
5938;DHT22;2994;51.220;4.412;2022-12-16T07:00:56;4.05;71.77
5938;DHT22;2994;51.220;4.412;2022-12-16T07:03:40;4.05;71.83
5938;DHT22;2994;51.220;4.412;2022-12-16T07:06:24;4.05;71.67
5938;DHT22;2994;51.220;4.412;2022-12-16T07:09:08;4.05;71.66
5938;DHT22;2994;51.220;4.412;2022-12-16T07:11:52;4.05;71.71
5938;DHT22;2994;51.220;4.412;2022-12-16T07:14:36;4.03;71.83
5938;DHT22;2994;51.220;4.412;2022-12-16T07:17:20;4.03;71.72
5938;DHT22;2994;51.220;4.412;2022-12-16T07:20:05;4.02;71.79
5938;DHT22;2994;51.220;4.412;2022-12-16T07:22:49;4.01;71.76
5938;DHT22;2994;51.220;4.412;2022-12-16T07:25:33;4.01;71.71
5938;DHT22;2994;51.220;4.412;2022-12-16T07:28:17;4.00;71.64
5938;DHT22;2994;51.220;4.412;2022-12-16T07:31:01;4.00;71.66
5938;DHT22;2994;51.220;4.412;2022-12-16T07:33:44;3.99;71.66
5938;DHT22;2994;51.220;4.412;2022-12-16T07:36:28;3.98;71.66
5938;DHT22;2994;51.220;4.412;2022-12-16T07:39:12;4.00;71.68
5938;DHT22;2994;51.220;4.412;2022-12-16T07:41:56;4.00;71.77
5938;DHT22;2994;51.220;4.412;2022-12-16T07:44:40;3.99;71.80
5938;DHT22;2994;51.220;4.412;2022-12-16T07:47:24;3.99;71.77
5938;DHT22;2994;51.220;4.412;2022-12-16T07:50:08;3.98;71.80
5938;DHT22;2994;51.220;4.412;2022-12-16T07:52:56;3.98;71.78
5938;DHT22;2994;51.220;4.412;2022-12-16T07:55:40;3.97;71.74
5938;DHT22;2994;51.220;4.412;2022-12-16T07:58:24;3.99;71.55
5938;DHT22;2994;51.220;4.412;2022-12-16T08:01:08;3.95;71.67
5938;DHT22;2994;51.220;4.412;2022-12-16T08:03:52;3.91;71.77
5938;DHT22;2994;51.220;4.412;2022-12-16T08:06:36;3.94;71.69
5938;DHT22;2994;51.220;4.412;2022-12-16T08:09:20;3.97;71.58
5938;DHT22;2994;51.220;4.412;2022-12-16T08:12:04;3.93;71.64
5938;DHT22;2994;51.220;4.412;2022-12-16T08:14:48;3.94;71.53
5938;DHT22;2994;51.220;4.412;2022-12-16T08:17:32;3.92;71.65
5938;DHT22;2994;51.220;4.412;2022-12-16T08:20:16;3.95;71.51
5938;DHT22;2994;51.220;4.412;2022-12-16T08:23:00;3.97;71.51
5938;DHT22;2994;51.220;4.412;2022-12-16T08:25:44;3.94;71.60
5938;DHT22;2994;51.220;4.412;2022-12-16T08:28:28;3.95;71.63
5938;DHT22;2994;51.220;4.412;2022-12-16T08:31:11;3.95;71.64
5938;DHT22;2994;51.220;4.412;2022-12-16T08:33:56;3.99;71.55
5938;DHT22;2994;51.220;4.412;2022-12-16T08:36:39;3.98;71.47
5938;DHT22;2994;51.220;4.412;2022-12-16T08:39:24;3.99;71.60
5938;DHT22;2994;51.220;4.412;2022-12-16T08:42:07;4.01;71.59
5938;DHT22;2994;51.220;4.412;2022-12-16T08:44:51;4.02;71.61
5938;DHT22;2994;51.220;4.412;2022-12-16T08:47:35;4.03;71.72
5938;DHT22;2994;51.220;4.412;2022-12-16T08:50:19;4.03;71.67
5938;DHT22;2994;51.220;4.412;2022-12-16T08:53:03;4.03;71.57
5938;DHT22;2994;51.220;4.412;2022-12-16T08:55:47;4.02;71.51
5938;DHT22;2994;51.220;4.412;2022-12-16T08:58:31;4.05;71.37
5938;DHT22;2994;51.220;4.412;2022-12-16T09:01:15;4.07;71.39
5938;DHT22;2994;51.220;4.412;2022-12-16T09:03:59;4.07;71.43
5938;DHT22;2994;51.220;4.412;2022-12-16T09:06:43;4.10;71.56
5938;DHT22;2994;51.220;4.412;2022-12-16T09:09:27;4.09;71.56
5938;DHT22;2994;51.220;4.412;2022-12-16T09:12:11;4.10;71.38
5938;DHT22;2994;51.220;4.412;2022-12-16T09:14:55;4.10;71.19
5938;DHT22;2994;51.220;4.412;2022-12-16T09:17:39;4.12;71.05
5938;DHT22;2994;51.220;4.412;2022-12-16T09:20:23;4.14;70.90
5938;DHT22;2994;51.220;4.412;2022-12-16T09:23:07;4.15;70.84
5938;DHT22;2994;51.220;4.412;2022-12-16T09:25:51;4.15;70.84
5938;DHT22;2994;51.220;4.412;2022-12-16T09:28:35;4.18;70.77
5938;DHT22;2994;51.220;4.412;2022-12-16T09:31:19;4.18;70.77
5938;DHT22;2994;51.220;4.412;2022-12-16T09:34:03;4.20;70.72
5938;DHT22;2994;51.220;4.412;2022-12-16T09:36:47;4.20;70.68
5938;DHT22;2994;51.220;4.412;2022-12-16T09:39:30;4.22;70.59
5938;DHT22;2994;51.220;4.412;2022-12-16T09:48:58;4.22;70.48
5938;DHT22;2994;51.220;4.412;2022-12-16T09:51:45;4.26;70.35
5938;DHT22;2994;51.220;4.412;2022-12-16T09:54:33;4.28;70.23
5938;DHT22;2994;51.220;4.412;2022-12-16T09:57:18;4.29;70.26
5938;DHT22;2994;51.220;4.412;2022-12-16T10:00:11;4.31;70.26
5938;DHT22;2994;51.220;4.412;2022-12-16T10:02:59;4.33;70.05
5938;DHT22;2994;51.220;4.412;2022-12-16T10:06:01;4.34;70.10
5938;DHT22;2994;51.220;4.412;2022-12-16T10:09:03;4.35;70.19
5938;DHT22;2994;51.220;4.412;2022-12-16T10:12:49;4.36;70.14
5938;DHT22;2994;51.220;4.412;2022-12-16T10:15:30;4.37;69.94
5938;DHT22;2994;51.220;4.412;2022-12-16T10:21:21;4.41;70.01
5938;DHT22;2994;51.220;4.412;2022-12-16T10:27:44;4.47;69.67
5938;DHT22;2994;51.220;4.412;2022-12-16T10:30:29;4.48;69.55
5938;DHT22;2994;51.220;4.412;2022-12-16T10:33:15;4.53;69.21
5938;DHT22;2994;51.220;4.412;2022-12-16T10:35:59;4.53;69.23
5938;DHT22;2994;51.220;4.412;2022-12-16T10:39:00;4.54;69.01
5938;DHT22;2994;51.220;4.412;2022-12-16T10:41:47;4.58;69.05
5938;DHT22;2994;51.220;4.412;2022-12-16T10:44:36;4.60;68.99
5938;DHT22;2994;51.220;4.412;2022-12-16T10:47:22;4.60;68.96
5938;DHT22;2994;51.220;4.412;2022-12-16T10:50:11;4.59;68.97
5938;DHT22;2994;51.220;4.412;2022-12-16T10:52:59;4.62;68.78
5938;DHT22;2994;51.220;4.412;2022-12-16T10:59:02;4.63;68.77
5938;DHT22;2994;51.220;4.412;2022-12-16T11:01:58;4.65;68.78
5938;DHT22;2994;51.220;4.412;2022-12-16T11:04:53;4.67;68.22
5938;DHT22;2994;51.220;4.412;2022-12-16T11:10:27;4.73;67.88
5938;DHT22;2994;51.220;4.412;2022-12-16T11:13:26;4.75;67.62
5938;DHT22;2994;51.220;4.412;2022-12-16T11:16:13;4.77;67.68
5938;DHT22;2994;51.220;4.412;2022-12-16T11:18:57;4.78;67.42
5938;DHT22;2994;51.220;4.412;2022-12-16T11:21:41;4.80;67.53
5938;DHT22;2994;51.220;4.412;2022-12-16T11:24:26;4.81;67.39
5938;DHT22;2994;51.220;4.412;2022-12-16T11:27:14;4.81;67.49
5938;DHT22;2994;51.220;4.412;2022-12-16T11:30:14;4.84;67.53
5938;DHT22;2994;51.220;4.412;2022-12-16T11:33:04;4.87;67.33
5938;DHT22;2994;51.220;4.412;2022-12-16T11:35:52;4.87;67.33
5938;DHT22;2994;51.220;4.412;2022-12-16T11:38:46;4.88;67.10
5938;DHT22;2994;51.220;4.412;2022-12-16T11:41:37;4.88;66.94
5938;DHT22;2994;51.220;4.412;2022-12-16T11:44:43;4.90;67.22
5938;DHT22;2994;51.220;4.412;2022-12-16T11:47:40;4.90;67.06
5938;DHT22;2994;51.220;4.412;2022-12-16T11:50:27;4.92;67.04
5938;DHT22;2994;51.220;4.412;2022-12-16T11:53:45;4.91;67.33
5938;DHT22;2994;51.220;4.412;2022-12-16T11:56:33;4.94;67.09
5938;DHT22;2994;51.220;4.412;2022-12-16T11:59:40;4.91;65.37
5938;DHT22;2994;51.220;4.412;2022-12-16T12:02:44;5.01;65.16
5938;DHT22;2994;51.220;4.412;2022-12-16T12:05:36;5.06;65.97
5938;DHT22;2994;51.220;4.412;2022-12-16T12:08:30;5.07;65.85
5938;DHT22;2994;51.220;4.412;2022-12-16T12:11:30;5.08;65.92
5938;DHT22;2994;51.220;4.412;2022-12-16T12:17:34;5.10;66.01
5938;DHT22;2994;51.220;4.412;2022-12-16T12:23:22;5.12;66.05
5938;DHT22;2994;51.220;4.412;2022-12-16T12:26:11;5.03;65.80
5938;DHT22;2994;51.220;4.412;2022-12-16T12:38:20;5.22;65.04
5938;DHT22;2994;51.220;4.412;2022-12-16T12:41:17;5.24;64.98
5938;DHT22;2994;51.220;4.412;2022-12-16T12:44:16;5.27;65.26
5938;DHT22;2994;51.220;4.412;2022-12-16T12:47:06;5.28;65.38
5938;DHT22;2994;51.220;4.412;2022-12-16T12:50:08;5.27;63.52
5938;DHT22;2994;51.220;4.412;2022-12-16T12:56:52;5.37;64.88
5938;DHT22;2994;51.220;4.412;2022-12-16T13:02:43;5.37;64.70
5938;DHT22;2994;51.220;4.412;2022-12-16T13:05:31;5.42;64.27
5938;DHT22;2994;51.220;4.412;2022-12-16T13:08:32;5.42;64.16
5938;DHT22;2994;51.220;4.412;2022-12-16T13:11:23;5.43;64.51
5938;DHT22;2994;51.220;4.412;2022-12-16T13:17:14;5.39;63.68
5938;DHT22;2994;51.220;4.412;2022-12-16T13:19:58;5.47;64.00
5938;DHT22;2994;51.220;4.412;2022-12-16T13:22:44;5.49;64.08
5938;DHT22;2994;51.220;4.412;2022-12-16T13:25:37;5.51;64.01
5938;DHT22;2994;51.220;4.412;2022-12-16T13:28:33;5.53;64.11
5938;DHT22;2994;51.220;4.412;2022-12-16T13:31:18;5.53;63.69
5938;DHT22;2994;51.220;4.412;2022-12-16T13:34:06;5.48;63.56
5938;DHT22;2994;51.220;4.412;2022-12-16T13:36:55;5.53;63.82
5938;DHT22;2994;51.220;4.412;2022-12-16T13:39:41;5.54;63.49
5938;DHT22;2994;51.220;4.412;2022-12-16T13:45:30;5.52;62.23
5938;DHT22;2994;51.220;4.412;2022-12-16T13:48:36;5.60;63.08
5938;DHT22;2994;51.220;4.412;2022-12-16T13:51:57;5.61;62.82
5938;DHT22;2994;51.220;4.412;2022-12-16T13:54:50;5.60;63.11
5938;DHT22;2994;51.220;4.412;2022-12-16T13:57:39;5.59;62.46
5938;DHT22;2994;51.220;4.412;2022-12-16T14:00:25;5.57;63.30
5938;DHT22;2994;51.220;4.412;2022-12-16T14:03:16;5.55;63.44
5938;DHT22;2994;51.220;4.412;2022-12-16T14:06:03;5.55;62.59
5938;DHT22;2994;51.220;4.412;2022-12-16T14:08:49;5.57;62.61
5938;DHT22;2994;51.220;4.412;2022-12-16T14:11:48;5.56;63.06
5938;DHT22;2994;51.220;4.412;2022-12-16T14:14:38;5.36;60.11
5938;DHT22;2994;51.220;4.412;2022-12-16T14:17:44;5.54;61.90
5938;DHT22;2994;51.220;4.412;2022-12-16T14:20:40;5.59;62.30
5938;DHT22;2994;51.220;4.412;2022-12-16T14:26:13;5.57;62.89
5938;DHT22;2994;51.220;4.412;2022-12-16T14:28:57;5.45;61.50
5938;DHT22;2994;51.220;4.412;2022-12-16T14:31:42;5.57;61.48
5938;DHT22;2994;51.220;4.412;2022-12-16T14:34:32;5.61;62.10
5938;DHT22;2994;51.220;4.412;2022-12-16T14:37:28;5.61;62.54
5938;DHT22;2994;51.220;4.412;2022-12-16T14:40:24;5.59;62.91
5938;DHT22;2994;51.220;4.412;2022-12-16T14:43:12;5.57;63.22
5938;DHT22;2994;51.220;4.412;2022-12-16T14:45:57;5.55;63.00
5938;DHT22;2994;51.220;4.412;2022-12-16T14:48:45;5.52;63.21
5938;DHT22;2994;51.220;4.412;2022-12-16T14:51:34;5.51;63.34
5938;DHT22;2994;51.220;4.412;2022-12-16T14:57:16;5.52;62.79
5938;DHT22;2994;51.220;4.412;2022-12-16T15:02:56;5.50;63.11
5938;DHT22;2994;51.220;4.412;2022-12-16T15:05:41;5.47;63.58
5938;DHT22;2994;51.220;4.412;2022-12-16T15:08:28;5.42;63.55
5938;DHT22;2994;51.220;4.412;2022-12-16T15:11:14;5.41;63.77
5938;DHT22;2994;51.220;4.412;2022-12-16T15:14:01;5.38;63.82
5938;DHT22;2994;51.220;4.412;2022-12-16T15:16:50;5.36;63.98
5938;DHT22;2994;51.220;4.412;2022-12-16T15:19:42;5.34;64.05
5938;DHT22;2994;51.220;4.412;2022-12-16T15:22:28;5.34;63.91
5938;DHT22;2994;51.220;4.412;2022-12-16T15:25:23;5.32;64.15
5938;DHT22;2994;51.220;4.412;2022-12-16T15:28:37;5.30;64.48
5938;DHT22;2994;51.220;4.412;2022-12-16T15:31:33;5.27;64.24
5938;DHT22;2994;51.220;4.412;2022-12-16T15:34:24;5.27;64.31
5938;DHT22;2994;51.220;4.412;2022-12-16T15:37:22;5.23;64.42
5938;DHT22;2994;51.220;4.412;2022-12-16T15:40:27;5.21;64.18
5938;DHT22;2994;51.220;4.412;2022-12-16T15:43:25;5.18;64.47
5938;DHT22;2994;51.220;4.412;2022-12-16T15:49:02;5.19;64.49
5938;DHT22;2994;51.220;4.412;2022-12-16T15:51:48;5.16;64.31
5938;DHT22;2994;51.220;4.412;2022-12-16T15:54:32;5.16;64.24
5938;DHT22;2994;51.220;4.412;2022-12-16T15:57:55;5.16;64.24
5938;DHT22;2994;51.220;4.412;2022-12-16T16:00:39;5.16;64.18
5938;DHT22;2994;51.220;4.412;2022-12-16T16:03:26;5.12;64.20
5938;DHT22;2994;51.220;4.412;2022-12-16T16:06:20;5.15;64.63
5938;DHT22;2994;51.220;4.412;2022-12-16T16:09:12;5.11;64.43
5938;DHT22;2994;51.220;4.412;2022-12-16T16:11:56;5.12;64.50
5938;DHT22;2994;51.220;4.412;2022-12-16T16:14:40;5.10;64.61
5938;DHT22;2994;51.220;4.412;2022-12-16T16:17:24;5.08;64.62
5938;DHT22;2994;51.220;4.412;2022-12-16T16:20:13;5.07;64.53
5938;DHT22;2994;51.220;4.412;2022-12-16T16:22:58;5.08;64.51
5938;DHT22;2994;51.220;4.412;2022-12-16T16:25:42;5.06;64.58
5938;DHT22;2994;51.220;4.412;2022-12-16T16:28:26;5.06;64.62
5938;DHT22;2994;51.220;4.412;2022-12-16T16:31:10;5.04;64.68
5938;DHT22;2994;51.220;4.412;2022-12-16T16:33:54;5.04;64.67
5938;DHT22;2994;51.220;4.412;2022-12-16T16:36:38;5.00;64.95
5938;DHT22;2994;51.220;4.412;2022-12-16T16:39:21;4.98;65.10
5938;DHT22;2994;51.220;4.412;2022-12-16T16:42:06;4.97;65.05
5938;DHT22;2994;51.220;4.412;2022-12-16T16:44:50;4.95;65.19
5938;DHT22;2994;51.220;4.412;2022-12-16T16:47:37;4.95;65.30
5938;DHT22;2994;51.220;4.412;2022-12-16T16:50:21;4.92;65.26
5938;DHT22;2994;51.220;4.412;2022-12-16T16:53:12;4.91;65.23
5938;DHT22;2994;51.220;4.412;2022-12-16T16:55:57;4.91;65.29
5938;DHT22;2994;51.220;4.412;2022-12-16T16:58:41;4.89;65.44
5938;DHT22;2994;51.220;4.412;2022-12-16T17:01:25;4.89;65.54
5938;DHT22;2994;51.220;4.412;2022-12-16T17:04:22;4.88;65.55
5938;DHT22;2994;51.220;4.412;2022-12-16T17:07:06;4.86;65.71
5938;DHT22;2994;51.220;4.412;2022-12-16T17:09:54;4.84;65.82
5938;DHT22;2994;51.220;4.412;2022-12-16T17:12:40;4.83;65.84
5938;DHT22;2994;51.220;4.412;2022-12-16T17:15:29;4.82;65.90
5938;DHT22;2994;51.220;4.412;2022-12-16T17:18:13;4.80;65.92
5938;DHT22;2994;51.220;4.412;2022-12-16T17:20:57;4.82;66.02
5938;DHT22;2994;51.220;4.412;2022-12-16T17:23:41;4.79;66.15
5938;DHT22;2994;51.220;4.412;2022-12-16T17:26:25;4.79;66.05
5938;DHT22;2994;51.220;4.412;2022-12-16T17:29:23;4.78;66.01
5938;DHT22;2994;51.220;4.412;2022-12-16T17:32:08;4.78;66.04
5938;DHT22;2994;51.220;4.412;2022-12-16T17:34:55;4.78;66.24
5938;DHT22;2994;51.220;4.412;2022-12-16T17:37:40;4.78;65.98
5938;DHT22;2994;51.220;4.412;2022-12-16T17:40:23;4.77;65.98
5938;DHT22;2994;51.220;4.412;2022-12-16T17:43:07;4.76;65.93
5938;DHT22;2994;51.220;4.412;2022-12-16T17:46:01;4.75;66.04
5938;DHT22;2994;51.220;4.412;2022-12-16T17:48:50;4.76;66.23
5938;DHT22;2994;51.220;4.412;2022-12-16T17:51:34;4.75;66.11
5938;DHT22;2994;51.220;4.412;2022-12-16T17:54:18;4.74;66.14
5938;DHT22;2994;51.220;4.412;2022-12-16T17:57:02;4.75;66.17
5938;DHT22;2994;51.220;4.412;2022-12-16T17:59:48;4.75;66.11
5938;DHT22;2994;51.220;4.412;2022-12-16T18:02:32;4.73;66.04
5938;DHT22;2994;51.220;4.412;2022-12-16T18:05:16;4.75;65.96
5938;DHT22;2994;51.220;4.412;2022-12-16T18:08:00;4.72;66.00
5938;DHT22;2994;51.220;4.412;2022-12-16T18:10:44;4.74;66.00
5938;DHT22;2994;51.220;4.412;2022-12-16T18:13:28;4.72;65.96
5938;DHT22;2994;51.220;4.412;2022-12-16T18:16:12;4.72;65.89
5938;DHT22;2994;51.220;4.412;2022-12-16T18:18:56;4.73;65.94
5938;DHT22;2994;51.220;4.412;2022-12-16T18:21:40;4.72;66.01
5938;DHT22;2994;51.220;4.412;2022-12-16T18:24:24;4.72;65.81
5938;DHT22;2994;51.220;4.412;2022-12-16T18:27:08;4.67;65.78
5938;DHT22;2994;51.220;4.412;2022-12-16T18:29:52;4.67;65.75
5938;DHT22;2994;51.220;4.412;2022-12-16T18:32:37;4.66;65.71
5938;DHT22;2994;51.220;4.412;2022-12-16T18:35:21;4.65;65.78
5938;DHT22;2994;51.220;4.412;2022-12-16T18:38:05;4.63;65.64
5938;DHT22;2994;51.220;4.412;2022-12-16T18:40:49;4.62;65.64
5938;DHT22;2994;51.220;4.412;2022-12-16T18:43:33;4.61;65.87
5938;DHT22;2994;51.220;4.412;2022-12-16T18:46:17;4.59;65.81
5938;DHT22;2994;51.220;4.412;2022-12-16T18:49:01;4.61;65.65
5938;DHT22;2994;51.220;4.412;2022-12-16T18:51:45;4.57;65.72
5938;DHT22;2994;51.220;4.412;2022-12-16T18:54:29;4.56;65.61
5938;DHT22;2994;51.220;4.412;2022-12-16T18:57:13;4.57;65.46
5938;DHT22;2994;51.220;4.412;2022-12-16T18:59:57;4.53;65.43
5938;DHT22;2994;51.220;4.412;2022-12-16T19:02:41;4.53;65.43
5938;DHT22;2994;51.220;4.412;2022-12-16T19:05:25;4.51;65.41
5938;DHT22;2994;51.220;4.412;2022-12-16T19:08:09;4.49;65.30
5938;DHT22;2994;51.220;4.412;2022-12-16T19:10:57;4.49;65.40
5938;DHT22;2994;51.220;4.412;2022-12-16T19:13:41;4.49;65.37
5938;DHT22;2994;51.220;4.412;2022-12-16T19:16:25;4.49;65.40
5938;DHT22;2994;51.220;4.412;2022-12-16T19:19:09;4.48;65.43
5938;DHT22;2994;51.220;4.412;2022-12-16T19:21:53;4.46;65.35
5938;DHT22;2994;51.220;4.412;2022-12-16T19:24:37;4.44;65.33
5938;DHT22;2994;51.220;4.412;2022-12-16T19:27:22;4.43;65.33
5938;DHT22;2994;51.220;4.412;2022-12-16T19:30:06;4.42;65.41
5938;DHT22;2994;51.220;4.412;2022-12-16T19:32:51;4.42;65.33
5938;DHT22;2994;51.220;4.412;2022-12-16T19:35:35;4.38;65.34
5938;DHT22;2994;51.220;4.412;2022-12-16T19:38:19;4.39;65.38